createdAt,value
2023-04-25T00:00:53.719Z,97303.25
2023-04-25T00:01:55.556Z,97301.47
2023-04-25T00:02:58.743Z,97305.69
2023-04-25T00:04:01.856Z,97298.03
2023-04-25T00:05:06.344Z,97305.06
2023-04-25T00:06:08.606Z,97302.44
2023-04-25T00:07:12.788Z,97302.44
2023-04-25T00:08:14.727Z,97300.84
2023-04-25T00:09:17.591Z,97305.22
2023-04-25T00:10:19.948Z,97300.00
2023-04-25T00:11:23.003Z,97301.00
2023-04-25T00:12:25.269Z,97301.00
2023-04-25T00:13:28.265Z,97300.31
2023-04-25T00:14:30.595Z,97296.09
2023-04-25T00:15:33.411Z,97304.72
2023-04-25T00:16:35.944Z,97305.72
2023-04-25T00:17:39.767Z,97303.09
2023-04-25T00:18:42.432Z,97305.72
2023-04-25T00:19:47.203Z,97303.28
2023-04-25T00:20:49.193Z,97306.53
2023-04-25T00:21:51.949Z,97300.50
2023-04-25T00:22:55.259Z,97298.69
2023-04-25T00:23:58.606Z,97297.06
2023-04-25T00:25:01.227Z,97297.06
2023-04-25T00:26:04.743Z,97296.09
2023-04-25T00:27:06.985Z,97301.00
2023-04-25T00:28:10.428Z,97301.81
2023-04-25T00:29:12.301Z,97301.00
2023-04-25T00:30:16.007Z,97296.72
2023-04-25T00:31:18.353Z,97298.69
2023-04-25T00:32:21.234Z,97303.09
2023-04-25T00:33:23.338Z,97305.88
2023-04-25T00:34:26.270Z,97297.06
2023-04-25T00:35:28.188Z,97301.94
2023-04-25T00:36:31.912Z,97298.53
2023-04-25T00:37:33.737Z,97299.50
2023-04-25T00:38:39.168Z,97297.19
2023-04-25T00:39:41.177Z,97298.16
2023-04-25T00:40:44.600Z,97301.75
2023-04-25T00:41:46.549Z,97308.78
2023-04-25T00:42:49.759Z,97304.53
2023-04-25T00:43:52.487Z,97312.38
2023-04-25T00:44:55.441Z,97307.16
2023-04-25T00:45:58.645Z,97310.56
2023-04-25T00:47:02.652Z,97315.78
2023-04-25T00:48:05.734Z,97313.34
2023-04-25T00:49:09.725Z,97307.16
2023-04-25T00:50:12.984Z,97314.81
2023-04-25T00:51:18.320Z,97318.22
2023-04-25T00:52:20.906Z,97318.22
2023-04-25T00:53:24.232Z,97314.81
2023-04-25T00:54:27.668Z,97316.59
2023-04-25T00:55:30.504Z,97313.19
2023-04-25T00:56:32.320Z,97314.63
2023-04-25T00:57:35.397Z,97314.34
2023-04-25T00:58:37.626Z,97321.03
2023-04-25T00:59:40.444Z,97317.28
2023-04-25T01:00:42.831Z,97311.78
2023-04-25T01:01:45.836Z,97308.81
2023-04-25T01:02:47.926Z,97310.31
2023-04-25T01:03:52.015Z,97311.09
2023-04-25T01:04:54.467Z,97309.31
2023-04-25T01:05:57.562Z,97307.53
2023-04-25T01:06:59.470Z,97311.09
2023-04-25T01:08:02.351Z,97308.31
2023-04-25T01:09:05.658Z,97315.34
2023-04-25T01:10:10.855Z,97310.78
2023-04-25T01:11:13.156Z,97312.44
2023-04-25T01:12:16.407Z,97308.66
2023-04-25T01:13:18.550Z,97310.28
2023-04-25T01:14:21.838Z,97307.34
2023-04-25T01:15:23.626Z,97308.34
2023-04-25T01:16:27.134Z,97307.34
2023-04-25T01:17:29.102Z,97310.09
2023-04-25T01:18:31.971Z,97305.06
2023-04-25T01:19:34.050Z,97307.84
2023-04-25T01:20:37.297Z,97307.03
2023-04-25T01:21:41.354Z,97307.84
2023-04-25T01:22:44.376Z,97307.84
2023-04-25T01:23:46.713Z,97315.69
2023-04-25T01:24:49.562Z,97304.25
2023-04-25T01:25:52.040Z,97305.72
2023-04-25T01:26:57.289Z,97308.16
2023-04-25T01:28:00.361Z,97304.56
2023-04-25T01:29:04.546Z,97308.16
2023-04-25T01:30:08.365Z,97308.16
2023-04-25T01:31:12.639Z,97311.59
2023-04-25T01:32:14.820Z,97313.38
2023-04-25T01:33:18.212Z,97311.75
2023-04-25T01:34:20.687Z,97311.75
2023-04-25T01:35:24.872Z,97303.13
2023-04-25T01:36:29.320Z,97308.47
2023-04-25T01:37:33.476Z,97310.44
2023-04-25T01:38:36.094Z,97303.59
2023-04-25T01:39:39.133Z,97310.78
2023-04-25T01:40:42.228Z,97299.50
2023-04-25T01:41:45.273Z,97308.31
2023-04-25T01:42:47.277Z,97305.91
2023-04-25T01:43:50.373Z,97303.59
2023-04-25T01:44:52.404Z,97309.78
2023-04-25T01:45:55.711Z,97311.59
2023-04-25T01:46:57.742Z,97304.88
2023-04-25T01:48:00.574Z,97308.47
2023-04-25T01:49:03.190Z,97310.44
2023-04-25T01:50:08.470Z,97316.66
2023-04-25T01:51:12.591Z,97318.75
2023-04-25T01:52:15.848Z,97312.19
2023-04-25T01:53:19.211Z,97313.19
2023-04-25T01:54:23.246Z,97315.13
2023-04-25T01:55:25.749Z,97312.69
2023-04-25T01:56:39.853Z,97318.06
2023-04-25T01:57:43.425Z,97319.19
2023-04-25T01:58:47.849Z,97313.97
2023-04-25T01:59:59.710Z,97317.91
2023-04-25T02:01:17.460Z,97321.13
2023-04-25T02:02:27.865Z,97321.47
2023-04-25T02:03:31.437Z,97312.00
2023-04-25T02:04:34.217Z,97321.78
2023-04-25T02:05:38.547Z,97319.50
2023-04-25T02:06:42.792Z,97316.38
2023-04-25T02:07:45.862Z,97324.22
2023-04-25T02:08:49.083Z,97314.75
2023-04-25T02:09:52.896Z,97326.16
2023-04-25T02:10:56.087Z,97316.69
2023-04-25T02:12:01.052Z,97316.56
2023-04-25T02:13:09.853Z,97323.69
2023-04-25T02:14:26.493Z,97322.06
2023-04-25T02:15:49.755Z,97317.34
2023-04-25T02:16:53.990Z,97314.88
2023-04-25T02:17:57.075Z,97319.44
2023-04-25T02:18:59.021Z,97322.88
2023-04-25T02:20:02.868Z,97323.84
2023-04-25T02:21:04.852Z,97324.66
2023-04-25T02:22:07.660Z,97324.81
2023-04-25T02:23:09.715Z,97322.53
2023-04-25T02:24:13.932Z,97326.91
2023-04-25T02:25:16.957Z,97323.81
2023-04-25T02:26:19.884Z,97326.72
2023-04-25T02:27:21.687Z,97323.31
2023-04-25T02:28:25.741Z,97324.28
2023-04-25T02:29:27.567Z,97321.69
2023-04-25T02:30:30.607Z,97328.69
2023-04-25T02:31:32.920Z,97327.19
2023-04-25T02:32:36.219Z,97326.38
2023-04-25T02:33:38.531Z,97320.53
2023-04-25T02:34:42.599Z,97326.72
2023-04-25T02:35:44.457Z,97329.63
2023-04-25T02:36:47.261Z,97321.16
2023-04-25T02:37:53.350Z,97319.66
2023-04-25T02:38:56.213Z,97326.84
2023-04-25T02:39:59.378Z,97328.63
2023-04-25T02:41:02.362Z,97325.34
2023-04-25T02:42:04.256Z,97326.16
2023-04-25T02:43:07.025Z,97332.34
2023-04-25T02:44:08.954Z,97328.13
2023-04-25T02:45:12.134Z,97327.31
2023-04-25T02:46:14.033Z,97326.63
2023-04-25T02:47:17.363Z,97332.00
2023-04-25T02:48:19.277Z,97326.94
2023-04-25T02:49:22.176Z,97328.06
2023-04-25T02:50:24.233Z,97330.66
2023-04-25T02:51:27.277Z,97333.16
2023-04-25T02:52:29.126Z,97329.84
2023-04-25T02:53:39.836Z,97330.84
2023-04-25T02:54:42.037Z,97331.81
2023-04-25T02:55:46.337Z,97331.00
2023-04-25T02:56:48.383Z,97327.72
2023-04-25T02:57:57.271Z,97334.88
2023-04-25T02:59:23.182Z,97333.41
2023-04-25T03:00:25.328Z,97335.84
2023-04-25T03:01:28.183Z,97336.84
2023-04-25T03:02:30.219Z,97336.84
2023-04-25T03:03:33.211Z,97337.78
2023-04-25T03:04:35.177Z,97333.41
2023-04-25T03:05:38.544Z,97338.75
2023-04-25T03:06:41.384Z,97332.22
2023-04-25T03:07:45.070Z,97334.81
2023-04-25T03:08:46.919Z,97334.00
2023-04-25T03:09:49.777Z,97331.41
2023-04-25T03:10:56.880Z,97338.41
2023-04-25T03:12:01.186Z,97335.00
2023-04-25T03:13:03.495Z,97337.59
2023-04-25T03:14:06.310Z,97339.38
2023-04-25T03:15:08.609Z,97337.75
2023-04-25T03:16:12.555Z,97327.50
2023-04-25T03:17:14.390Z,97338.06
2023-04-25T03:18:17.182Z,97338.22
2023-04-25T03:19:19.604Z,97340.00
2023-04-25T03:20:22.541Z,97340.00
2023-04-25T03:21:24.632Z,97347.50
2023-04-25T03:22:28.172Z,97339.69
2023-04-25T03:23:29.986Z,97341.34
2023-04-25T03:24:32.800Z,97341.47
2023-04-25T03:25:34.753Z,97341.63
2023-04-25T03:26:39.053Z,97338.06
2023-04-25T03:27:40.876Z,97343.25
2023-04-25T03:28:44.090Z,97341.34
2023-04-25T03:29:45.891Z,97341.34
2023-04-25T03:30:48.782Z,97344.88
2023-04-25T03:31:50.918Z,97333.81
2023-04-25T03:32:53.722Z,97346.03
2023-04-25T03:33:55.559Z,97348.78
2023-04-25T03:35:00.176Z,97347.81
2023-04-25T03:36:03.638Z,97342.59
2023-04-25T03:37:06.671Z,97342.44
2023-04-25T03:38:12.960Z,97344.88
2023-04-25T03:39:16.949Z,97339.69
2023-04-25T03:40:23.451Z,97344.88
2023-04-25T03:41:55.909Z,97353.03
2023-04-25T03:42:57.774Z,97346.31
2023-04-25T03:44:00.905Z,97355.28
2023-04-25T03:45:02.855Z,97359.81
2023-04-25T03:46:06.561Z,97355.72
2023-04-25T03:47:08.486Z,97365.34
2023-04-25T03:48:11.374Z,97362.03
2023-04-25T03:49:15.460Z,97360.56
2023-04-25T03:50:34.131Z,97366.59
2023-04-25T03:51:36.082Z,97357.16
2023-04-25T03:52:38.875Z,97362.66
2023-04-25T03:53:41.218Z,97358.28
2023-04-25T03:55:05.640Z,97357.78
2023-04-25T03:56:07.868Z,97360.50
2023-04-25T03:57:14.457Z,97367.50
2023-04-25T03:58:18.124Z,97365.06
2023-04-25T03:59:21.216Z,97359.84
2023-04-25T04:00:24.446Z,97369.44
2023-04-25T04:01:28.067Z,97366.19
2023-04-25T04:02:30.930Z,97361.94
2023-04-25T04:03:34.236Z,97367.31
2023-04-25T04:04:37.707Z,97371.03
2023-04-25T04:05:41.668Z,97368.88
2023-04-25T04:06:45.373Z,97375.88
2023-04-25T04:07:52.117Z,97370.81
2023-04-25T04:08:54.918Z,97375.34
2023-04-25T04:09:57.135Z,97376.16
2023-04-25T04:11:05.289Z,97380.72
2023-04-25T04:12:08.225Z,97386.06
2023-04-25T04:13:13.792Z,97379.22
2023-04-25T04:14:15.676Z,97376.63
2023-04-25T04:15:21.958Z,97381.16
2023-04-25T04:16:24.218Z,97394.19
2023-04-25T04:17:27.250Z,97390.88
2023-04-25T04:18:29.283Z,97391.69
2023-04-25T04:19:33.309Z,97394.47
2023-04-25T04:20:42.038Z,97392.00
2023-04-25T04:21:44.820Z,97390.38
2023-04-25T04:22:47.521Z,97395.44
2023-04-25T04:23:51.859Z,97394.63
2023-04-25T04:24:55.253Z,97399.00
2023-04-25T04:26:12.406Z,97396.69
2023-04-25T04:27:27.336Z,97393.94
2023-04-25T04:28:38.925Z,97396.53
2023-04-25T04:30:02.754Z,97392.31
2023-04-25T04:31:14.026Z,97406.00
2023-04-25T04:32:17.328Z,97398.03
2023-04-25T04:33:20.511Z,97399.50
2023-04-25T04:34:28.005Z,97402.78
2023-04-25T04:35:30.076Z,97401.00
2023-04-25T04:36:33.030Z,97399.22
2023-04-25T04:37:35.416Z,97401.66
2023-04-25T04:38:40.716Z,97403.97
2023-04-25T04:39:44.831Z,97407.25
2023-04-25T04:41:08.064Z,97406.25
2023-04-25T04:42:37.218Z,97400.56
2023-04-25T04:44:04.199Z,97405.09
2023-04-25T04:45:13.870Z,97401.53
2023-04-25T04:46:47.919Z,97396.34
2023-04-25T04:48:10.077Z,97397.00
2023-04-25T04:49:23.589Z,97391.78
2023-04-25T04:50:46.006Z,97400.03
2023-04-25T04:52:14.657Z,97404.06
2023-04-25T04:53:36.823Z,97402.44
2023-04-25T04:55:06.758Z,97402.44
2023-04-25T04:56:39.338Z,97404.66
2023-04-25T04:58:00.696Z,97406.72
2023-04-25T04:59:28.143Z,97395.66
2023-04-25T05:00:53.760Z,97410.75
2023-04-25T05:02:11.636Z,97399.69
2023-04-25T05:03:33.000Z,97405.81
2023-04-25T05:05:02.047Z,97412.00
2023-04-25T05:06:22.493Z,97405.00
2023-04-25T05:07:44.878Z,97403.09
2023-04-25T05:09:07.270Z,97406.66
2023-04-25T05:10:28.962Z,97404.34
2023-04-25T05:11:54.213Z,97405.97
2023-04-25T05:13:12.481Z,97408.59
2023-04-25T05:14:32.217Z,97405.00
2023-04-25T05:15:48.135Z,97408.13
2023-04-25T05:17:09.529Z,97407.16
2023-04-25T05:18:38.264Z,97414.97
2023-04-25T05:19:47.081Z,97400.88
2023-04-25T05:20:55.697Z,97412.91
2023-04-25T05:22:36.956Z,97412.63
2023-04-25T05:23:53.686Z,97415.06
2023-04-25T05:25:15.677Z,97419.13
2023-04-25T05:26:34.153Z,97406.81
2023-04-25T05:27:52.079Z,97414.47
2023-04-25T05:29:17.242Z,97420.47
2023-04-25T05:30:39.723Z,97414.63
2023-04-25T05:31:54.219Z,97417.06
2023-04-25T05:32:57.264Z,97415.81
2023-04-25T05:33:59.334Z,97415.50
2023-04-25T05:35:12.647Z,97418.78
2023-04-25T05:36:19.795Z,97418.47
2023-04-25T05:37:23.275Z,97416.53
2023-04-25T05:38:35.161Z,97423.22
2023-04-25T05:39:56.137Z,97424.03
2023-04-25T05:41:31.413Z,97421.75
2023-04-25T05:42:49.067Z,97423.66
2023-04-25T05:44:03.341Z,97426.28
2023-04-25T05:45:29.455Z,97430.00
2023-04-25T05:46:42.453Z,97425.78
2023-04-25T05:47:57.143Z,97432.88
2023-04-25T05:49:12.134Z,97426.06
2023-04-25T05:50:34.007Z,97431.09
2023-04-25T05:51:39.692Z,97425.78
2023-04-25T05:52:49.852Z,97429.84
2023-04-25T05:54:11.875Z,97428.38
2023-04-25T05:55:14.522Z,97423.97
2023-04-25T05:56:18.130Z,97432.59
2023-04-25T05:57:23.541Z,97435.38
2023-04-25T05:58:26.498Z,97434.22
2023-04-25T05:59:29.530Z,97422.03
2023-04-25T06:00:32.990Z,97430.81
2023-04-25T06:01:34.928Z,97430.00
2023-04-25T06:02:39.485Z,97429.19
2023-04-25T06:03:44.113Z,97432.44
2023-04-25T06:04:47.302Z,97433.13
2023-04-25T06:05:49.338Z,97434.44
2023-04-25T06:06:52.976Z,97435.13
2023-04-25T06:07:54.783Z,97431.13
2023-04-25T06:08:57.579Z,97434.75
2023-04-25T06:09:59.497Z,97434.94
2023-04-25T06:11:02.277Z,97443.13
2023-04-25T06:12:04.605Z,97434.03
2023-04-25T06:13:07.689Z,97441.56
2023-04-25T06:14:11.349Z,97444.16
2023-04-25T06:15:28.220Z,97443.03
2023-04-25T06:16:31.379Z,97436.41
2023-04-25T06:17:34.702Z,97436.09
2023-04-25T06:18:38.236Z,97435.38
2023-04-25T06:19:41.723Z,97433.78
2023-04-25T06:20:43.985Z,97441.94
2023-04-25T06:21:46.981Z,97438.19
2023-04-25T06:22:48.973Z,97439.25
2023-04-25T06:23:52.202Z,97441.50
2023-04-25T06:24:59.834Z,97436.19
2023-04-25T06:26:02.896Z,97434.75
2023-04-25T06:27:06.267Z,97433.31
2023-04-25T06:28:09.177Z,97443.63
2023-04-25T06:29:11.659Z,97436.75
2023-04-25T06:30:14.873Z,97442.44
2023-04-25T06:31:16.819Z,97430.00
2023-04-25T06:32:21.414Z,97434.72
2023-04-25T06:33:27.658Z,97430.16
2023-04-25T06:34:32.126Z,97438.34
2023-04-25T06:35:36.346Z,97431.69
2023-04-25T06:36:39.263Z,97433.84
2023-04-25T06:37:45.502Z,97440.22
2023-04-25T06:38:47.547Z,97433.66
2023-04-25T06:39:50.477Z,97436.28
2023-04-25T06:40:52.514Z,97440.66
2023-04-25T06:41:55.903Z,97439.03
2023-04-25T06:43:16.679Z,97444.09
2023-04-25T06:44:31.789Z,97442.81
2023-04-25T06:45:34.682Z,97444.31
2023-04-25T06:46:38.860Z,97436.50
2023-04-25T06:47:40.853Z,97441.03
2023-04-25T06:48:44.508Z,97442.00
2023-04-25T06:49:48.333Z,97444.44
2023-04-25T08:38:40.171Z,97443.53
2023-04-25T08:40:42.653Z,97440.56
2023-04-25T08:42:49.081Z,97435.00
2023-04-25T08:47:13.438Z,97435.47
2023-04-25T08:51:35.476Z,97440.53
2023-04-25T08:52:47.452Z,97447.34
2023-04-25T08:54:30.929Z,97439.75
2023-04-25T08:55:20.575Z,97443.97
2023-04-25T08:56:26.170Z,97440.16
2023-04-25T08:57:32.754Z,97449.72
2023-04-25T08:58:38.016Z,97444.75
2023-04-25T08:59:47.032Z,97441.25
2023-04-25T09:00:53.360Z,97444.16
2023-04-25T09:02:01.664Z,97447.59
2023-04-25T09:03:07.876Z,97440.38
2023-04-25T09:04:23.012Z,97449.06
2023-04-25T09:05:33.300Z,97451.81
2023-04-25T09:06:38.950Z,97452.13
2023-04-25T09:07:46.409Z,97438.16
2023-04-25T09:08:55.909Z,97448.94
2023-04-25T09:10:01.083Z,97447.41
2023-04-25T09:11:05.587Z,97445.88
2023-04-25T09:12:09.068Z,97450.25
2023-04-25T09:13:14.238Z,97449.06
2023-04-25T09:14:45.166Z,97446.34
2023-04-25T09:16:00.969Z,97450.75
2023-04-25T09:17:25.796Z,97449.69
2023-04-25T09:18:32.999Z,97455.81
2023-04-25T09:19:42.421Z,97459.41
2023-04-25T09:21:14.878Z,97455.97
2023-04-25T09:22:23.996Z,97452.00
2023-04-25T09:23:28.062Z,97456.38
2023-04-25T09:24:34.306Z,97455.75
2023-04-25T09:25:40.316Z,97450.88
2023-04-25T09:26:45.768Z,97451.97
2023-04-25T09:27:54.300Z,97457.41
2023-04-25T09:29:08.629Z,97447.91
2023-04-25T09:30:17.334Z,97457.59
2023-04-25T09:31:39.395Z,97449.53
2023-04-25T09:32:46.276Z,97454.06
2023-04-25T09:33:51.842Z,97448.28
2023-04-25T09:34:57.764Z,97452.63
2023-04-25T09:36:08.427Z,97441.69
2023-04-25T09:37:31.416Z,97446.81
2023-04-25T09:38:52.832Z,97448.56
2023-04-25T09:40:08.809Z,97446.66
2023-04-25T09:41:25.727Z,97454.59
2023-04-25T09:42:32.755Z,97451.09
2023-04-25T09:43:34.646Z,97449.47
2023-04-25T09:44:38.184Z,97451.44
2023-04-25T09:45:46.721Z,97454.44
2023-04-25T09:46:53.986Z,97451.53
2023-04-25T09:48:07.108Z,97447.09
2023-04-25T09:49:11.825Z,97452.63
2023-04-25T09:50:33.405Z,97453.56
2023-04-25T09:51:43.797Z,97450.03
2023-04-25T09:52:46.692Z,97454.63
2023-04-25T09:53:54.774Z,97455.59
2023-04-25T09:55:11.184Z,97457.25
2023-04-25T09:56:15.260Z,97453.66
2023-04-25T09:57:19.587Z,97459.00
2023-04-25T09:58:22.470Z,97450.78
2023-04-25T09:59:25.612Z,97451.22
2023-04-25T10:00:28.768Z,97453.81
2023-04-25T10:01:31.815Z,97455.09
2023-04-25T10:02:49.408Z,97449.16
2023-04-25T10:04:13.695Z,97448.09
2023-04-25T10:05:44.317Z,97453.63
2023-04-25T10:06:48.209Z,97447.56
2023-04-25T10:07:52.371Z,97452.19
2023-04-25T10:08:56.711Z,97448.47
2023-04-25T10:10:01.635Z,97446.13
2023-04-25T10:11:07.868Z,97444.72
2023-04-25T10:12:09.942Z,97444.56
2023-04-25T10:13:15.288Z,97445.00
2023-04-25T10:14:18.686Z,97444.44
2023-04-25T10:15:21.699Z,97450.41
2023-04-25T10:16:24.746Z,97446.84
2023-04-25T10:17:28.826Z,97449.19
2023-04-25T10:18:33.450Z,97436.75
2023-04-25T10:19:36.449Z,97439.19
2023-04-25T10:20:39.222Z,97439.63
2023-04-25T10:21:47.749Z,97436.25
2023-04-25T10:22:54.971Z,97439.44
2023-04-25T10:23:56.816Z,97438.16
2023-04-25T10:24:59.842Z,97431.75
2023-04-25T10:26:02.731Z,97435.00
2023-04-25T10:27:07.065Z,97429.47
2023-04-25T10:28:09.820Z,97431.50
2023-04-25T10:29:11.741Z,97437.63
2023-04-25T10:30:17.071Z,97432.63
2023-04-25T10:31:19.171Z,97436.88
2023-04-25T10:32:22.311Z,97432.69
2023-04-25T10:33:31.087Z,97434.63
2023-04-25T10:34:41.972Z,97432.75
2023-04-25T10:35:47.153Z,97434.72
2023-04-25T10:36:52.104Z,97430.41
2023-04-25T10:38:02.214Z,97431.84
2023-04-25T10:39:09.707Z,97427.75
2023-04-25T10:40:13.765Z,97423.88
2023-04-25T10:41:16.563Z,97426.34
2023-04-25T10:42:20.768Z,97421.09
2023-04-25T10:43:37.198Z,97426.81
2023-04-25T10:44:40.894Z,97428.53
2023-04-25T10:45:52.586Z,97418.94
2023-04-25T10:46:57.253Z,97418.38
2023-04-25T10:48:00.063Z,97411.75
2023-04-25T10:49:04.148Z,97419.91
2023-04-25T10:50:07.124Z,97415.03
2023-04-25T10:51:10.506Z,97424.91
2023-04-25T10:52:14.472Z,97423.81
2023-04-25T10:53:17.795Z,97424.13
2023-04-25T10:54:21.091Z,97431.78
2023-04-25T10:55:24.291Z,97421.59
2023-04-25T10:56:27.842Z,97428.00
2023-04-25T10:57:34.299Z,97412.19
2023-04-25T10:58:36.084Z,97416.69
2023-04-25T10:59:38.918Z,97417.53
2023-04-25T11:00:53.262Z,97415.34
2023-04-25T11:01:59.478Z,97411.47
2023-04-25T11:03:02.598Z,97414.84
2023-04-25T11:04:04.528Z,97406.72
2023-04-25T11:05:08.414Z,97416.00
2023-04-25T11:06:20.090Z,97409.69
2023-04-25T11:07:28.211Z,97414.91
2023-04-25T11:08:49.857Z,97417.97
2023-04-25T11:09:53.387Z,97419.44
2023-04-25T11:10:55.977Z,97420.13
2023-04-25T11:12:00.047Z,97406.44
2023-04-25T11:13:04.206Z,97416.16
2023-04-25T11:14:07.356Z,97417.34
2023-04-25T11:15:11.289Z,97408.66
2023-04-25T11:16:13.619Z,97418.53
2023-04-25T11:17:27.332Z,97419.34
2023-04-25T11:18:30.217Z,97422.31
2023-04-25T11:19:32.204Z,97421.00
2023-04-25T11:20:34.920Z,97424.22
2023-04-25T11:21:36.953Z,97424.84
2023-04-25T11:22:41.544Z,97423.06
2023-04-25T11:23:46.280Z,97421.16
2023-04-25T11:24:49.039Z,97427.72
2023-04-25T11:25:52.147Z,97412.97
2023-04-25T11:26:53.968Z,97417.88
2023-04-25T11:27:58.111Z,97417.28
2023-04-25T11:29:02.732Z,97423.81
2023-04-25T11:30:12.341Z,97421.03
2023-04-25T11:31:15.509Z,97428.34
2023-04-25T11:32:19.263Z,97427.97
2023-04-25T11:33:25.974Z,97418.25
2023-04-25T11:34:28.116Z,97415.41
2023-04-25T11:35:30.909Z,97419.66
2023-04-25T11:36:33.617Z,97421.91
2023-04-25T11:37:36.447Z,97417.09
2023-04-25T11:38:38.273Z,97416.47
2023-04-25T11:39:45.166Z,97420.75
2023-04-25T11:40:51.902Z,97427.41
2023-04-25T11:41:53.909Z,97425.16
2023-04-25T11:42:56.652Z,97426.97
2023-04-25T11:43:58.836Z,97428.72
2023-04-25T11:45:03.116Z,97424.81
2023-04-25T11:46:08.262Z,97428.16
2023-04-25T11:47:11.101Z,97426.88
2023-04-25T11:48:12.983Z,97429.97
2023-04-25T11:49:16.233Z,97424.22
2023-04-25T11:50:18.972Z,97431.59
2023-04-25T11:51:21.014Z,97431.19
2023-04-25T11:52:23.806Z,97435.38
2023-04-25T11:53:25.941Z,97433.28
2023-04-25T11:54:28.704Z,97424.88
2023-04-25T11:55:32.435Z,97430.59
2023-04-25T11:56:34.385Z,97435.75
2023-04-25T11:57:37.392Z,97427.94
2023-04-25T11:58:58.645Z,97435.38
2023-04-25T12:00:12.103Z,97433.84
2023-04-25T12:01:29.892Z,97428.50
2023-04-25T12:02:37.126Z,97432.88
2023-04-25T12:03:47.940Z,97431.59
2023-04-25T12:04:51.274Z,97433.41
2023-04-25T12:05:53.577Z,97437.66
2023-04-25T12:06:57.277Z,97432.25
2023-04-25T12:07:59.195Z,97433.13
2023-04-25T12:09:04.637Z,97437.03
2023-04-25T12:10:09.240Z,97435.84
2023-04-25T12:11:22.605Z,97429.41
2023-04-25T12:12:29.639Z,97426.16
2023-04-25T12:13:33.846Z,97427.53
2023-04-25T12:14:36.796Z,97432.13
2023-04-25T12:15:42.881Z,97427.28
2023-04-25T12:16:47.341Z,97427.63
2023-04-25T12:17:53.249Z,97425.19
2023-04-25T12:18:55.043Z,97428.97
2023-04-25T12:19:57.787Z,97432.41
2023-04-25T12:21:01.146Z,97433.63
2023-04-25T12:22:04.967Z,97433.81
2023-04-25T12:23:08.742Z,97431.59
2023-04-25T12:24:13.227Z,97434.34
2023-04-25T12:25:35.822Z,97436.72
2023-04-25T12:26:51.276Z,97438.25
2023-04-25T12:27:54.050Z,97437.78
2023-04-25T12:28:55.805Z,97438.94
2023-04-25T12:29:59.406Z,97441.16
2023-04-25T12:31:05.347Z,97437.25
2023-04-25T12:32:07.354Z,97441.50
2023-04-25T12:33:10.701Z,97437.59
2023-04-25T12:34:12.878Z,97435.97
2023-04-25T12:35:15.906Z,97440.94
2023-04-25T12:36:18.072Z,97439.50
2023-04-25T12:37:21.314Z,97440.50
2023-04-25T12:38:27.613Z,97436.41
2023-04-25T12:39:30.604Z,97436.16
2023-04-25T12:40:32.501Z,97432.09
2023-04-25T12:41:35.439Z,97436.06
2023-04-25T12:42:38.193Z,97432.34
2023-04-25T12:43:40.131Z,97434.69
2023-04-25T12:44:43.031Z,97433.06
2023-04-25T12:45:46.207Z,97437.03
2023-04-25T12:46:51.247Z,97434.56
2023-04-25T12:47:53.318Z,97437.03
2023-04-25T12:49:05.306Z,97444.91
2023-04-25T12:50:14.661Z,97445.19
2023-04-25T12:51:16.518Z,97436.13
2023-04-25T12:52:19.276Z,97442.19
2023-04-25T12:53:22.545Z,97441.56
2023-04-25T12:54:25.811Z,97440.75
2023-04-25T12:55:27.665Z,97442.66
2023-04-25T12:56:30.592Z,97441.47
2023-04-25T12:57:33.443Z,97448.19
2023-04-25T12:58:36.211Z,97444.38
2023-04-25T12:59:39.315Z,97447.63
2023-04-25T13:00:41.144Z,97442.19
2023-04-25T13:01:45.324Z,97441.19
2023-04-25T13:02:48.716Z,97435.53
2023-04-25T13:03:51.879Z,97431.16
2023-04-25T13:04:54.783Z,97442.19
2023-04-25T13:05:56.734Z,97435.50
2023-04-25T13:06:59.567Z,97437.47
2023-04-25T13:08:02.384Z,97436.66
2023-04-25T13:09:05.567Z,97432.22
2023-04-25T13:10:09.380Z,97429.59
2023-04-25T13:11:11.353Z,97426.00
2023-04-25T13:12:14.178Z,97426.81
2023-04-25T13:13:17.482Z,97437.59
2023-04-25T13:14:20.246Z,97427.91
2023-04-25T13:15:22.895Z,97437.75
2023-04-25T13:16:25.963Z,97437.94
2023-04-25T13:17:29.042Z,97430.25
2023-04-25T13:18:32.489Z,97437.94
2023-04-25T13:19:35.288Z,97430.06
2023-04-25T13:20:37.076Z,97426.44
2023-04-25T13:21:39.810Z,97425.34
2023-04-25T13:22:43.012Z,97432.78
2023-04-25T13:23:47.504Z,97430.97
2023-04-25T13:24:49.259Z,97432.94
2023-04-25T13:25:52.136Z,97433.75
2023-04-25T13:26:54.853Z,97433.13
2023-04-25T13:27:57.591Z,97431.50
2023-04-25T13:29:04.647Z,97429.50
2023-04-25T13:30:08.993Z,97431.13
2023-04-25T13:31:11.772Z,97426.69
2023-04-25T13:32:13.880Z,97433.13
2023-04-25T13:33:16.718Z,97422.84
2023-04-25T13:34:20.789Z,97428.88
2023-04-25T13:35:22.674Z,97423.66
2023-04-25T13:36:26.927Z,97427.69
2023-04-25T13:37:28.873Z,97430.78
2023-04-25T13:38:31.675Z,97425.19
2023-04-25T13:39:33.485Z,97428.06
2023-04-25T13:40:37.054Z,97430.00
2023-04-25T13:41:38.965Z,97439.03
2023-04-25T13:42:42.160Z,97432.72
2023-04-25T13:43:44.884Z,97426.94
2023-04-25T13:44:47.719Z,97433.28
2023-04-25T13:45:49.610Z,97440.59
2023-04-25T13:46:52.378Z,97433.81
2023-04-25T13:47:55.264Z,97441.16
2023-04-25T13:49:03.022Z,97437.13
2023-04-25T13:50:14.640Z,97441.56
2023-04-25T13:51:17.699Z,97436.50
2023-04-25T13:52:20.575Z,97441.94
2023-04-25T13:53:22.373Z,97436.25
2023-04-25T13:54:25.104Z,97439.41
2023-04-25T13:55:27.351Z,97434.16
2023-04-25T13:56:30.105Z,97441.41
2023-04-25T13:57:32.169Z,97442.22
2023-04-25T13:58:34.998Z,97435.97
2023-04-25T13:59:37.788Z,97440.06
2023-04-25T14:00:40.720Z,97435.63
2023-04-25T14:01:43.707Z,97433.81
2023-04-25T14:02:46.696Z,97445.13
2023-04-25T14:03:50.686Z,97438.25
2023-04-25T14:04:52.891Z,97435.09
2023-04-25T14:05:57.039Z,97442.38
2023-04-25T14:07:00.645Z,97442.84
2023-04-25T14:08:02.615Z,97441.69
2023-04-25T14:09:05.714Z,97443.31
2023-04-25T14:10:08.240Z,97447.53
2023-04-25T14:11:11.085Z,97449.34
2023-04-25T14:12:12.996Z,97446.53
2023-04-25T14:13:16.057Z,97447.53
2023-04-25T14:14:17.916Z,97449.72
2023-04-25T14:15:21.137Z,97449.72
2023-04-25T14:16:23.995Z,97445.72
2023-04-25T14:17:26.949Z,97444.19
2023-04-25T14:18:29.744Z,97445.00
2023-04-25T14:19:31.628Z,97444.56
2023-04-25T14:20:34.436Z,97446.94
2023-04-25T14:21:37.569Z,97443.50
2023-04-25T14:22:43.869Z,97440.88
2023-04-25T14:23:47.801Z,97447.28
2023-04-25T14:24:50.552Z,97447.28
2023-04-25T14:25:52.300Z,97442.56
2023-04-25T14:26:55.104Z,97445.94
2023-04-25T14:27:56.883Z,97443.84
2023-04-25T14:28:59.685Z,97456.78
2023-04-25T14:30:01.545Z,97450.72
2023-04-25T14:31:04.448Z,97449.56
2023-04-25T14:32:06.465Z,97451.19
2023-04-25T14:33:09.331Z,97454.06
2023-04-25T14:34:12.287Z,97449.72
2023-04-25T14:35:15.075Z,97441.69
2023-04-25T14:36:17.096Z,97449.97
2023-04-25T14:37:21.185Z,97443.75
2023-04-25T14:38:24.239Z,97444.91
2023-04-25T14:39:27.124Z,97448.00
2023-04-25T14:40:29.906Z,97442.63
2023-04-25T14:41:32.739Z,97443.34
2023-04-25T14:42:35.156Z,97446.69
2023-04-25T14:43:38.275Z,97447.56
2023-04-25T14:44:40.077Z,97454.13
2023-04-25T14:45:42.930Z,97449.88
2023-04-25T14:46:45.878Z,97453.13
2023-04-25T14:47:47.816Z,97454.75
2023-04-25T14:48:50.766Z,97461.00
2023-04-25T14:49:55.100Z,97454.44
2023-04-25T14:50:58.257Z,97457.00